Time;durP1;ratioP1;P1;durP2;ratioP2;P2;SDS_P1;SDS_P2;PMS_P1;PMS_P2;Temp;Humidity;BMP_temperature;BMP_pressure;BME280_temperature;BME280_humidity;BME280_pressure;Samples;Min_cycle;Max_cycle;Signal;HPM_P1;HPM_P2
2021/01/27 00:00:11;;;;;;;13.75;7.00;;;4.30;88.00;;;4.60;71.47;100609.19;5021446;28;20108;-87
2021/01/27 00:02:37;;;;;;;18.33;7.45;;;4.30;88.00;;;4.57;71.14;100608.63;5006772;28;20046;-86
2021/01/27 00:05:09;;;;;;;15.68;6.90;;;4.30;87.80;;;4.58;71.13;100589.63;5021231;28;20053;-86
2021/01/27 00:07:35;;;;;;;15.20;7.47;;;4.30;88.10;;;4.57;71.24;100592.47;5004799;28;20046;-86
2021/01/27 00:10:05;;;;;;;14.13;6.63;;;4.20;87.80;;;4.59;71.05;100590.47;5006586;28;20049;-86
2021/01/27 00:12:31;;;;;;;11.68;6.55;;;4.30;87.80;;;4.57;70.59;100592.47;5021308;28;20042;-86
2021/01/27 00:14:58;;;;;;;13.90;6.70;;;4.20;87.50;;;4.51;70.67;100585.81;5021345;28;20054;-86
2021/01/27 00:17:26;;;;;;;12.55;6.65;;;4.20;87.70;;;4.57;70.56;100584.38;5022459;28;20729;-87
2021/01/27 00:19:53;;;;;;;11.18;5.90;;;4.20;87.30;;;4.51;70.36;100583.09;5025560;28;20506;-86
2021/01/27 00:22:20;;;;;;;9.68;5.68;;;4.20;87.30;;;4.54;70.54;100579.28;5025378;28;20057;-87
2021/01/27 00:24:46;;;;;;;13.00;6.40;;;4.20;87.50;;;4.56;70.24;100571.91;5025261;28;20136;-86
2021/01/27 00:27:14;;;;;;;11.18;6.00;;;4.20;87.30;;;4.55;70.34;100565.69;5009885;28;20061;-86
2021/01/27 00:29:41;;;;;;;10.65;6.18;;;4.10;87.00;;;4.60;69.42;100558.00;5025122;28;20054;-86
2021/01/27 00:32:08;;;;;;;12.32;5.95;;;4.20;86.70;;;4.51;69.70;100558.84;5009981;28;20081;-86
2021/01/27 00:34:35;;;;;;;12.73;6.22;;;4.20;86.90;;;4.52;69.86;100571.34;5008655;28;20049;-86
2021/01/27 00:37:02;;;;;;;11.35;6.28;;;4.10;86.90;;;4.46;69.76;100574.63;5010669;28;20049;-86
2021/01/27 00:39:28;;;;;;;13.10;6.45;;;4.10;86.70;;;4.49;70.29;100563.53;5045010;28;20045;-86
2021/01/27 00:41:55;;;;;;;9.93;6.30;;;4.20;87.10;;;4.51;69.60;100545.38;5044537;28;20049;-86
2021/01/27 00:44:23;;;;;;;10.82;5.63;;;4.10;87.10;;;4.51;70.30;100545.38;5044506;28;20096;-87
2021/01/27 00:46:50;;;;;;;12.30;5.80;;;4.10;87.00;;;4.51;70.20;100548.06;5044478;28;20049;-86
2021/01/27 00:49:17;;;;;;;14.07;6.20;;;4.10;87.20;;;4.40;69.84;100532.06;5028059;28;20057;-86
2021/01/27 00:51:43;;;;;;;9.88;5.75;;;4.10;87.20;;;4.42;69.84;100525.56;5029384;28;20046;-86
2021/01/27 00:54:10;;;;;;;12.43;5.85;;;4.10;86.70;;;4.42;68.86;100535.50;5029357;28;20484;-86
2021/01/27 00:56:37;;;;;;;12.63;6.35;;;4.10;86.60;;;4.39;69.50;100525.00;5027635;28;20083;-86
2021/01/27 00:59:04;;;;;;;10.85;6.32;;;4.30;86.40;;;4.41;69.85;100536.47;5023187;28;20050;-86
2021/01/27 01:01:38;;;;;;;10.25;5.45;;;4.10;86.60;;;4.44;69.04;100539.72;5004864;28;20096;-86
2021/01/27 01:04:09;;;;;;;12.48;5.90;;;4.10;85.70;;;4.50;69.29;100538.31;5004710;28;20069;-86
2021/01/27 01:06:36;;;;;;;14.90;6.10;;;4.10;85.90;;;4.42;69.51;100532.78;5004493;28;20050;-85
2021/01/27 01:09:03;;;;;;;11.65;6.32;;;4.10;86.20;;;4.33;69.65;100528.28;4989753;28;20069;-85
2021/01/27 01:11:30;;;;;;;9.07;5.22;;;4.10;86.20;;;4.40;69.43;100518.59;5004563;28;20185;-85
2021/01/27 01:13:57;;;;;;;14.48;6.40;;;4.10;86.60;;;4.45;69.46;100519.00;5004578;28;20066;-86
2021/01/27 01:16:26;;;;;;;12.68;6.05;;;4.00;86.30;;;4.36;69.12;100530.66;4989378;28;20074;-86
2021/01/27 01:18:53;;;;;;;9.98;6.05;;;4.00;86.00;;;4.33;69.69;100530.97;5017025;28;20120;-86
2021/01/27 01:21:20;;;;;;;10.88;5.68;;;4.00;86.20;;;4.30;69.28;100532.06;5007769;28;20157;-86
2021/01/27 01:23:49;;;;;;;14.05;6.55;;;4.10;85.80;;;4.32;68.85;100535.47;5024150;28;20127;-86
2021/01/27 01:26:16;;;;;;;11.30;6.05;;;4.10;85.90;;;4.34;69.20;100528.13;5008833;28;20065;-85
2021/01/27 01:28:43;;;;;;;11.93;6.32;;;4.10;85.50;;;4.35;69.02;100528.97;5023297;28;20056;-85
2021/01/27 01:31:09;;;;;;;12.32;6.55;;;4.10;86.00;;;4.39;69.48;100525.00;5008901;28;20046;-86
2021/01/27 01:33:36;;;;;;;12.88;6.78;;;4.00;86.40;;;4.43;70.00;100523.69;5008946;28;20046;-85
2021/01/27 01:36:05;;;;;;;12.25;6.50;;;4.00;86.70;;;4.47;69.12;100527.81;5007261;28;20050;-85
2021/01/27 01:38:32;;;;;;;11.95;6.28;;;4.10;86.40;;;4.39;68.08;100519.59;5024050;28;20058;-86
2021/01/27 01:41:04;;;;;;;12.52;6.13;;;4.30;85.80;;;4.34;68.79;100533.53;5023662;28;20115;-86
2021/01/27 01:43:34;;;;;;;11.15;6.32;;;4.00;85.60;;;4.39;68.23;100522.28;5008660;28;20038;-85
2021/01/27 01:46:04;;;;;;;13.23;5.80;;;4.00;85.20;;;4.36;68.65;100530.66;5007190;28;20050;-86
2021/01/27 01:48:39;;;;;;;12.07;6.22;;;4.00;85.50;;;4.36;68.09;100528.84;5007190;28;20049;-86
2021/01/27 01:51:14;;;;;;;11.90;6.05;;;4.10;85.50;;;4.32;68.09;100532.78;5008661;28;20446;-86
2021/01/27 01:53:41;;;;;;;12.93;6.00;;;4.10;84.80;;;4.38;67.78;100518.75;5007112;28;20084;-87
2021/01/27 01:56:13;;;;;;;9.27;5.50;;;4.10;84.60;;;4.35;68.24;100515.50;5023028;28;20535;-86
2021/01/27 01:58:41;;;;;;;11.10;5.68;;;4.10;84.60;;;4.30;67.38;100515.91;5010906;28;20045;-86
2021/01/27 02:01:09;;;;;;;12.60;6.00;;;4.20;84.60;;;4.29;68.31;100515.06;5008229;28;20050;-86
2021/01/27 02:03:38;;;;;;;11.00;5.50;;;4.10;84.50;;;4.34;67.89;100503.00;5008487;28;20130;-86
2021/01/27 02:06:09;;;;;;;10.27;6.00;;;4.10;84.50;;;4.34;68.04;100500.31;5006575;28;20128;-86
2021/01/27 02:08:42;;;;;;;9.07;5.80;;;4.10;84.70;;;4.33;67.37;100501.31;5010530;28;20041;-87
2021/01/27 02:11:10;;;;;;;12.30;5.78;;;4.10;84.10;;;4.32;67.47;100497.75;5011485;28;20046;-87
2021/01/27 02:14:05;;;;;;;10.77;6.22;;;4.00;83.70;;;4.33;67.47;100493.25;5012434;28;20141;-87
2021/01/27 02:16:42;;;;;;;11.07;5.70;;;4.10;84.00;;;4.34;67.94;100494.94;5011948;28;20494;-86
2021/01/27 02:20:11;;;;;;;12.38;5.47;;;4.10;84.20;;;4.31;67.51;100494.22;5013992;28;20053;-89
2021/01/27 02:23:40;;;;;;;8.75;5.40;;;4.10;84.20;;;4.27;68.06;100500.91;5012188;28;20046;-87
2021/01/27 02:26:43;;;;;;;10.95;6.05;;;4.10;84.00;;;4.23;68.43;100490.56;5008303;28;20066;-86
2021/01/27 02:29:36;;;;;;;10.70;5.97;;;4.00;84.40;;;4.33;68.45;100482.47;5026878;28;20057;-86
2021/01/27 02:32:42;;;;;;;9.80;5.97;;;4.10;84.40;;;4.35;68.10;100485.88;5027120;28;20525;-87
2021/01/27 02:35:15;;;;;;;10.00;5.38;;;4.10;84.70;;;4.30;66.82;100488.97;5008572;28;20535;-88
2021/01/27 02:37:49;;;;;;;10.15;5.32;;;4.10;84.20;;;4.29;67.87;100490.81;5011495;28;20100;-86
2021/01/27 02:40:24;;;;;;;10.20;5.38;;;4.10;83.90;;;4.37;67.70;100484.72;5010757;28;20046;-86
2021/01/27 02:43:03;;;;;;;8.05;4.70;;;4.10;84.50;;;4.30;66.99;100484.47;5011180;28;20057;-86
2021/01/27 02:45:35;;;;;;;9.25;5.35;;;4.20;83.90;;;4.36;67.18;100484.84;5011847;28;20049;-86
2021/01/27 02:48:09;;;;;;;8.10;4.93;;;4.10;83.50;;;4.35;66.75;100469.69;5011888;28;20561;-87
2021/01/27 02:50:42;;;;;;;12.23;5.38;;;4.10;83.60;;;4.26;67.57;100461.47;5011897;28;20054;-87
2021/01/27 02:53:18;;;;;;;8.40;4.90;;;4.10;83.50;;;4.27;67.40;100457.78;5012651;28;20042;-86
2021/01/27 02:55:54;;;;;;;9.30;4.75;;;4.10;84.20;;;4.31;67.60;100448.44;5011883;28;20065;-86
2021/01/27 02:58:27;;;;;;;8.30;4.60;;;4.10;83.90;;;4.35;67.79;100443.59;5023750;28;20052;-87
2021/01/27 03:01:01;;;;;;;8.13;4.30;;;4.00;84.70;;;4.39;67.99;100434.22;5031492;28;20041;-87
2021/01/27 03:03:36;;;;;;;9.55;4.10;;;4.10;84.40;;;4.39;67.95;100428.84;5032619;28;20161;-86
2021/01/27 03:06:08;;;;;;;8.00;4.38;;;4.10;84.30;;;4.43;66.71;100427.53;5031552;28;20049;-86
2021/01/27 03:08:42;;;;;;;9.43;4.15;;;4.10;83.70;;;4.39;67.33;100428.00;5031937;28;20038;-86
2021/01/27 03:11:15;;;;;;;8.07;4.00;;;4.10;84.40;;;4.29;68.33;100423.47;5031363;28;20060;-86
2021/01/27 03:13:46;;;;;;;7.57;3.90;;;4.00;84.50;;;4.36;67.81;100417.50;5032671;28;20049;-86
2021/01/27 03:16:18;;;;;;;7.70;3.60;;;4.00;84.20;;;4.37;67.69;100425.44;5031382;28;20045;-86
2021/01/27 03:18:57;;;;;;;6.65;3.25;;;4.00;84.40;;;4.33;67.64;100425.88;5031780;28;20103;-86
2021/01/27 03:21:28;;;;;;;7.38;3.25;;;4.00;84.70;;;4.37;68.06;100419.22;5032018;28;20379;-86
2021/01/27 03:24:03;;;;;;;6.95;3.65;;;4.00;85.20;;;4.32;68.35;100414.25;5046515;28;20119;-86
2021/01/27 03:26:39;;;;;;;9.25;3.20;;;4.20;85.10;;;4.29;68.35;100407.31;5030210;28;20049;-86
2021/01/27 03:29:14;;;;;;;9.27;3.15;;;4.00;85.10;;;4.38;68.92;100411.00;5046445;28;20049;-86
2021/01/27 03:31:41;;;;;;;5.63;2.97;;;4.00;85.70;;;4.36;68.63;100406.72;5031307;28;20056;-87
2021/01/27 03:34:15;;;;;;;5.88;2.72;;;4.00;85.50;;;4.21;67.66;100401.81;5047089;28;20072;-87
2021/01/27 03:36:53;;;;;;;6.20;2.72;;;4.00;84.80;;;4.28;68.91;100388.59;5031212;28;20057;-87
2021/01/27 03:39:23;;;;;;;5.05;2.53;;;4.00;85.40;;;4.36;68.89;100387.88;5012295;28;20064;-86
2021/01/27 03:41:59;;;;;;;5.55;2.53;;;4.20;85.90;;;4.38;69.33;100380.47;5026563;28;20057;-86
2021/01/27 03:44:33;;;;;;;5.43;2.70;;;4.10;85.80;;;4.42;68.40;100371.97;5007743;28;20124;-86
2021/01/27 03:47:05;;;;;;;6.30;2.47;;;4.10;85.50;;;4.45;68.76;100368.13;5011142;28;20038;-86
2021/01/27 03:49:36;;;;;;;7.10;2.60;;;4.10;85.70;;;4.41;69.19;100351.41;5010381;28;20045;-87
2021/01/27 03:52:10;;;;;;;;;;;4.10;86.30;;;4.44;69.27;100352.97;5012245;28;20554;-89
2021/01/27 03:54:42;;;;;;;4.90;2.28;;;4.10;85.90;;;4.44;68.93;100355.66;5011574;28;19926;-89
2021/01/27 03:57:18;;;;;;;6.30;2.53;;;4.10;85.70;;;4.44;68.64;100353.81;5010857;28;20116;-89
2021/01/27 03:59:45;;;;;;;5.30;2.22;;;4.10;86.30;;;4.37;69.10;100359.94;4991591;28;20251;-89
2021/01/27 04:02:18;;;;;;;4.13;2.10;;;4.10;86.10;;;4.36;69.00;100360.91;4989966;28;20145;-88
2021/01/27 04:04:45;;;;;;;8.05;2.60;;;4.10;85.80;;;4.25;68.69;100348.50;5007247;28;20057;-87
2021/01/27 04:07:13;;;;;;;4.30;2.20;;;4.10;85.40;;;4.35;69.32;100351.16;4994970;28;20141;-87
2021/01/27 04:09:41;;;;;;;5.65;2.30;;;4.10;86.30;;;4.36;69.54;100342.06;4993752;28;20122;-89
2021/01/27 04:12:08;;;;;;;7.50;2.40;;;4.10;86.10;;;4.42;69.33;100352.28;4993259;28;20054;-86
2021/01/27 04:14:36;;;;;;;7.32;2.42;;;4.20;86.10;;;4.43;69.32;100340.47;4995145;28;20471;-87
2021/01/27 04:17:12;;;;;;;5.80;2.85;;;4.10;86.00;;;4.35;68.43;100329.59;4994778;28;20065;-86
2021/01/27 04:19:39;;;;;;;6.43;2.80;;;4.20;85.60;;;4.42;69.50;100326.16;4992793;28;20038;-87
2021/01/27 04:22:06;;;;;;;6.05;2.90;;;4.20;86.00;;;4.41;68.88;100327.16;4994553;28;20054;-86
2021/01/27 04:24:34;;;;;;;5.82;2.30;;;4.40;86.10;;;4.41;69.36;100327.16;4991964;28;20058;-89
2021/01/27 04:27:01;;;;;;;7.20;2.70;;;4.40;86.30;;;4.47;70.08;100314.94;4990595;28;20053;-89
2021/01/27 04:29:27;;;;;;;4.53;2.35;;;4.20;86.40;;;4.38;69.70;100315.81;4989216;28;20717;-89
2021/01/27 04:31:54;;;;;;;5.88;2.75;;;4.30;86.10;;;4.35;69.63;100313.44;4992208;28;20042;-86
2021/01/27 04:34:21;;;;;;;7.00;2.60;;;4.20;85.90;;;4.40;69.82;100316.50;4993186;28;20745;-87
2021/01/27 04:36:48;;;;;;;5.15;2.85;;;4.20;86.00;;;4.43;70.02;100305.44;4993603;28;20046;-87
2021/01/27 04:39:15;;;;;;;7.32;2.65;;;4.20;86.20;;;4.45;69.89;100309.69;4991976;28;20049;-86
2021/01/27 04:41:43;;;;;;;7.05;2.63;;;4.20;86.40;;;4.39;69.84;100290.59;4994133;28;20133;-86
2021/01/27 04:44:10;;;;;;;5.68;2.50;;;4.30;86.30;;;4.32;69.68;100282.25;4993263;28;20046;-86
2021/01/27 04:46:46;;;;;;;5.68;2.60;;;4.30;85.90;;;4.28;70.19;100281.72;4991533;28;20594;-86
2021/01/27 04:49:22;;;;;;;5.03;2.50;;;4.30;85.80;;;4.33;70.34;100265.09;5008623;28;20407;-86
2021/01/27 04:51:58;;;;;;;11.18;3.53;;;4.30;86.00;;;4.43;69.99;100252.41;5006610;28;20046;-90
2021/01/27 04:54:47;;;;;;;5.93;2.97;;;4.20;86.60;;;4.46;69.90;100256.66;4992032;28;20051;-86
2021/01/27 04:57:33;;;;;;;6.15;2.85;;;4.30;86.50;;;4.47;70.03;100253.81;4993559;28;20112;-86
2021/01/27 05:00:22;;;;;;;5.20;2.88;;;4.20;86.60;;;4.31;69.60;100232.91;4991388;28;20583;-86
2021/01/27 05:03:19;;;;;;;6.07;3.40;;;4.30;86.40;;;4.37;70.62;100226.06;4990428;28;20865;-87
2021/01/27 05:05:54;;;;;;;5.85;2.97;;;4.30;86.70;;;4.44;70.37;100226.31;4989826;28;20046;-89
2021/01/27 05:08:28;;;;;;;7.32;3.40;;;4.20;86.70;;;4.46;70.54;100222.47;5008435;28;20050;-86
2021/01/27 05:11:00;;;;;;;6.45;3.28;;;4.20;86.70;;;4.41;70.25;100221.22;4993560;28;20263;-86
2021/01/27 05:13:33;;;;;;;5.50;3.17;;;4.30;86.50;;;4.42;70.11;100215.69;4994227;28;20046;-86
2021/01/27 05:16:07;;;;;;;5.50;2.90;;;4.30;86.70;;;4.36;70.00;100220.81;5009200;28;20050;-86
2021/01/27 05:18:34;;;;;;;7.93;3.42;;;4.30;86.40;;;4.37;70.02;100209.06;5005416;28;20045;-86
2021/01/27 05:21:01;;;;;;;7.30;3.15;;;4.30;86.30;;;4.35;70.30;100211.06;5029198;28;20057;-87
2021/01/27 05:23:28;;;;;;;7.15;3.03;;;4.30;86.30;;;4.30;69.76;100193.53;5028488;28;20745;-86
2021/01/27 05:26:04;;;;;;;8.70;3.17;;;4.30;86.20;;;4.25;69.26;100195.81;5012588;28;20049;-86
2021/01/27 05:28:37;;;;;;;6.25;2.72;;;4.40;85.10;;;4.27;70.38;100193.81;5011920;28;20066;-89
2021/01/27 05:31:04;;;;;;;6.75;3.03;;;4.30;85.70;;;4.39;70.63;100196.28;5010675;28;20042;-87
2021/01/27 05:33:48;;;;;;;7.75;2.90;;;4.40;86.00;;;4.34;69.49;100183.28;5009478;28;20054;-88
2021/01/27 05:36:20;;;;;;;5.50;2.92;;;4.40;85.80;;;4.36;70.20;100183.13;5008606;28;20061;-89
2021/01/27 05:38:48;;;;;;;5.85;2.63;;;4.40;85.50;;;4.36;70.12;100172.34;5025008;28;20096;-89
2021/01/27 05:41:23;;;;;;;6.65;2.92;;;4.40;85.70;;;4.35;70.83;100163.41;5008014;28;20056;-89
2021/01/27 05:43:54;;;;;;;5.88;3.05;;;4.40;85.70;;;4.25;70.04;100168.88;5024450;28;20060;-87
2021/01/27 05:46:31;;;;;;;7.28;2.70;;;4.40;85.30;;;4.33;70.86;100157.34;5029313;28;20115;-89
2021/01/27 05:48:58;;;;;;;5.65;2.60;;;4.40;85.70;;;4.41;70.06;100159.25;5017215;28;20057;-90
2021/01/27 05:51:31;;;;;;;5.50;2.50;;;4.40;85.60;;;4.35;70.28;100151.81;5016883;28;20054;-89
2021/01/27 05:53:58;;;;;;;5.78;2.30;;;4.50;85.50;;;4.37;69.98;100145.25;5015863;28;20049;-92
2021/01/27 05:56:26;;;;;;;5.25;2.35;;;4.40;85.30;;;4.41;70.17;100140.41;5026107;28;20049;-92
2021/01/27 05:59:05;;;;;;;5.32;2.53;;;4.40;85.40;;;4.44;69.94;100138.25;5025385;28;20041;-93
2021/01/27 06:01:38;;;;;;;10.57;3.05;;;4.40;85.70;;;4.47;70.46;100139.78;5010881;28;20056;-89
2021/01/27 06:04:21;;;;;;;5.53;2.40;;;4.50;85.90;;;4.47;70.23;100142.47;5011147;28;20052;-89
2021/01/27 06:07:04;;;;;;;6.63;2.30;;;4.40;85.70;;;4.43;70.46;100138.41;5010747;28;20048;-91
2021/01/27 06:09:41;;;;;;;5.05;2.42;;;4.40;85.60;;;4.46;70.72;100132.72;5007947;28;20483;-91
2021/01/27 06:12:13;;;;;;;4.85;2.30;;;4.40;86.00;;;4.42;70.58;100121.41;5023626;28;20065;-91
2021/01/27 06:14:42;;;;;;;5.22;2.30;;;4.40;86.10;;;4.39;70.86;100131.63;5009427;28;20061;-89
2021/01/27 06:17:28;;;;;;;5.30;2.40;;;4.40;86.10;;;4.46;70.26;100121.94;5033801;28;20499;-92
2021/01/27 06:20:13;;;;;;;7.68;2.50;;;4.50;86.00;;;4.43;70.13;100116.84;5016533;28;20050;-92
2021/01/27 06:23:26;;;;;;;4.78;2.35;;;4.40;85.80;;;4.29;70.66;100105.59;5012390;28;20814;-89
2021/01/27 06:26:37;;;;;;;8.02;2.53;;;4.50;85.90;;;4.34;71.30;100112.38;5031019;28;20103;-87
2021/01/27 06:29:23;;;;;;;5.78;2.38;;;4.40;86.10;;;4.38;70.81;100116.44;5035585;28;20058;-93
2021/01/27 06:32:27;;;;;;;6.88;2.60;;;4.50;86.50;;;4.35;71.01;100114.09;5020592;28;20041;-94
2021/01/27 06:35:20;;;;;;;4.93;2.55;;;4.40;86.10;;;4.44;71.19;100103.22;5020588;28;20077;-89
2021/01/27 06:38:06;;;;;;;6.13;2.50;;;4.40;86.30;;;4.47;70.74;100102.06;5007635;28;20099;-89
2021/01/27 06:40:45;;;;;;;5.25;2.67;;;4.50;86.20;;;4.33;71.02;100099.94;5022907;28;20061;-91
2021/01/27 06:43:46;;;;;;;7.68;3.20;;;4.40;86.20;;;4.31;71.61;100094.69;5023749;28;20601;-89
2021/01/27 06:46:52;;;;;;;7.35;3.25;;;4.40;86.50;;;4.41;71.78;100091.91;5007189;28;20074;-89
2021/01/27 06:50:09;;;;;;;7.07;3.40;;;4.40;86.70;;;4.48;71.51;100082.22;5022970;28;20050;-89
2021/01/27 06:53:17;;;;;;;5.82;3.28;;;4.40;87.30;;;4.42;71.33;100082.84;5023145;28;20449;-89
2021/01/27 06:56:00;;;;;;;5.88;3.58;;;4.40;87.10;;;4.44;71.78;100086.22;5019088;28;20132;-90
2021/01/27 06:59:29;;;;;;;7.20;3.63;;;4.40;87.20;;;4.44;71.87;100078.97;5023365;28;20042;-92
2021/01/27 07:03:08;;;;;;;7.07;3.53;;;4.40;87.20;;;4.43;71.14;100073.75;5023393;28;20053;-93
2021/01/27 07:06:25;;;;;;;10.25;3.70;;;4.40;87.00;;;4.41;72.06;100081.13;5022110;28;20042;-89
2021/01/27 07:09:35;;;;;;;7.95;3.70;;;4.40;87.30;;;4.38;72.50;100078.72;5020176;28;20054;-90
2021/01/27 07:12:26;;;;;;;7.22;3.78;;;4.40;87.40;;;4.39;71.69;100083.97;5003768;28;20054;-91
2021/01/27 07:15:31;;;;;;;9.60;4.60;;;4.40;87.50;;;4.35;72.35;100082.59;4914574;29;20051;-91
2021/01/27 07:18:45;;;;;;;12.82;6.90;;;4.40;87.60;;;4.35;72.93;100081.75;4913452;29;20054;-91
2021/01/27 07:21:22;;;;;;;15.10;7.38;;;4.40;87.60;;;4.36;72.51;100078.03;4914161;29;20204;-91
2021/01/27 07:24:01;;;;;;;10.15;6.65;;;4.40;87.80;;;4.35;73.18;100076.38;4929227;29;20539;-91
2021/01/27 07:26:47;;;;;;;9.88;5.82;;;4.40;88.10;;;4.36;72.90;100073.53;4912454;29;20055;-91
2021/01/27 07:29:21;;;;;;;7.32;4.90;;;4.30;88.60;;;4.45;72.65;100067.19;4912872;29;20047;-91
2021/01/27 07:31:55;;;;;;;10.63;4.85;;;4.30;88.70;;;4.44;72.86;100059.28;4913167;29;20056;-91
2021/01/27 07:34:34;;;;;;;7.43;4.28;;;4.30;89.10;;;4.41;72.97;100057.72;4913401;29;20087;-91
2021/01/27 07:37:17;;;;;;;8.32;4.40;;;4.30;89.00;;;4.39;73.01;100061.59;4912643;29;20054;-91
2021/01/27 07:40:05;;;;;;;8.88;4.35;;;4.30;89.00;;;4.37;73.06;100069.81;4911450;29;20095;-88
2021/01/27 07:42:45;;;;;;;8.20;4.68;;;4.30;89.00;;;4.40;73.04;100069.50;4926437;29;20055;-88
2021/01/27 07:45:30;;;;;;;7.22;4.82;;;4.30;89.10;;;4.37;73.01;100071.66;4926358;29;20048;-91
2021/01/27 07:48:16;;;;;;;5.65;3.80;;;4.30;89.10;;;4.40;73.42;100080.28;4910697;29;20162;-90
2021/01/27 07:50:53;;;;;;;7.07;4.30;;;4.30;89.00;;;4.36;73.09;100078.03;4910854;29;20044;-88
2021/01/27 07:53:28;;;;;;;7.38;4.50;;;4.30;89.30;;;4.31;73.52;100079.38;5021724;28;20054;-88
2021/01/27 07:56:12;;;;;;;8.02;4.05;;;4.30;89.30;;;4.33;73.91;100078.38;5005519;28;20453;-88
2021/01/27 07:58:46;;;;;;;6.07;3.95;;;4.20;89.20;;;4.25;73.70;100081.84;5005449;28;20104;-90
2021/01/27 08:01:18;;;;;;;8.05;4.15;;;4.30;89.40;;;4.33;73.73;100079.22;5021526;28;20053;-88
2021/01/27 08:03:59;;;;;;;6.25;4.10;;;4.30;89.60;;;4.34;73.82;100069.28;5005456;28;20510;-87
2021/01/27 08:06:30;;;;;;;7.60;3.88;;;4.20;89.50;;;4.33;73.82;100073.81;5005384;28;20065;-89
2021/01/27 08:09:03;;;;;;;6.93;3.97;;;4.30;89.70;;;4.29;73.86;100078.69;5005523;28;20142;-88
2021/01/27 08:11:34;;;;;;;6.28;3.88;;;4.20;89.70;;;4.27;74.59;100069.91;5021865;28;20293;-87
2021/01/27 08:14:03;;;;;;;7.03;3.65;;;4.30;89.90;;;4.21;74.38;100062.44;5006127;28;20561;-87
2021/01/27 08:16:37;;;;;;;6.25;3.97;;;4.20;89.70;;;4.21;74.56;100070.53;5004835;28;20054;-87
2021/01/27 08:19:33;;;;;;;6.28;3.97;;;4.30;89.80;;;4.21;74.36;100075.06;5021645;28;20061;-87
2021/01/27 08:22:06;;;;;;;5.97;3.90;;;4.20;89.80;;;4.24;74.37;100062.13;5005282;28;20053;-91
2021/01/27 08:24:56;;;;;;;7.57;3.95;;;4.20;89.90;;;4.23;74.65;100063.13;5007983;28;20544;-88
2021/01/27 08:27:44;;;;;;;6.25;4.03;;;4.20;90.20;;;4.27;74.68;100058.28;5022738;28;20132;-91
2021/01/27 08:30:25;;;;;;;7.35;4.32;;;4.20;90.40;;;4.25;75.15;100063.81;5007608;28;20675;-89
2021/01/27 08:33:41;;;;;;;7.72;4.22;;;4.20;90.60;;;4.27;74.85;100064.50;5007546;28;20046;-91
2021/01/27 08:36:11;;;;;;;6.20;3.97;;;4.20;90.70;;;4.27;74.81;100063.69;5006641;28;20049;-91
2021/01/27 08:38:43;;;;;;;6.57;4.55;;;4.10;90.70;;;4.24;74.74;100067.50;5010494;28;20060;-91
2021/01/27 08:41:40;;;;;;;8.32;4.70;;;4.10;90.90;;;4.21;75.31;100065.16;5026600;28;20049;-92
2021/01/27 08:47:45;;;;;;;7.18;4.50;;;4.20;90.80;;;4.22;75.49;100031.81;5011117;28;20052;-90
2021/01/27 08:50:41;;;;;;;7.50;4.70;;;4.20;91.00;;;4.19;75.11;100026.75;5026225;28;20068;-90
2021/01/27 08:53:11;;;;;;;9.48;4.15;;;4.20;91.00;;;4.16;75.55;100010.88;5025836;28;20057;-92
2021/01/27 08:56:00;;;;;;;6.75;4.50;;;4.20;91.10;;;4.24;75.20;100018.19;5009343;28;20502;-91
2021/01/27 08:59:24;;;;;;;7.60;4.35;;;4.20;91.10;;;4.19;75.63;100012.41;5026190;28;20049;-89
2021/01/27 09:01:55;;;;;;;6.75;4.30;;;4.30;91.50;;;4.19;75.94;100018.66;5026216;28;20566;-88
2021/01/27 09:04:37;;;;;;;7.05;4.65;;;4.20;91.30;;;4.23;75.93;100021.91;5009179;28;20069;-88
2021/01/27 09:07:09;;;;;;;7.72;4.82;;;4.30;91.50;;;4.28;76.13;100016.88;5025192;28;20059;-88
2021/01/27 09:09:39;;;;;;;6.93;4.82;;;4.30;91.60;;;4.22;76.17;100018.34;5008555;28;20046;-88
2021/01/27 09:12:10;;;;;;;8.30;4.47;;;4.30;91.50;;;4.21;76.30;100010.44;5008176;28;20046;-88
2021/01/27 09:14:39;;;;;;;7.85;4.63;;;4.40;91.50;;;4.24;76.61;100010.09;5007801;28;20827;-88
2021/01/27 09:17:07;;;;;;;6.28;4.05;;;4.40;91.50;;;4.33;76.35;100011.03;5025538;28;20042;-90
2021/01/27 09:19:37;;;;;;;6.78;4.47;;;4.40;91.70;;;4.36;76.58;100013.38;5025028;28;20061;-88
2021/01/27 09:22:16;;;;;;;9.02;4.78;;;4.40;91.90;;;4.36;76.39;100014.25;5024622;28;20054;-91
2021/01/27 09:24:45;;;;;;;6.25;3.90;;;4.40;91.80;;;4.29;76.40;100011.34;5024684;28;20052;-92
2021/01/27 09:27:17;;;;;;;7.72;3.72;;;4.40;91.70;;;4.35;76.39;100017.09;5008173;28;20485;-89
2021/01/27 09:29:46;;;;;;;6.20;3.92;;;4.40;91.50;;;4.37;75.99;100015.09;5007642;28;20050;-87
2021/01/27 09:32:39;;;;;;;6.13;3.80;;;4.40;91.50;;;4.42;75.95;100018.19;5009033;28;20053;-89
2021/01/27 09:35:20;;;;;;;8.38;3.53;;;4.40;91.90;;;4.37;76.15;100024.03;5007685;28;20069;-88
2021/01/27 09:37:55;;;;;;;5.32;3.13;;;4.40;91.80;;;4.41;76.26;100035.34;5008823;28;20116;-87
2021/01/27 09:40:33;;;;;;;5.70;3.60;;;4.40;91.80;;;4.39;76.43;100035.47;5024088;28;20058;-88
2021/01/27 09:43:12;;;;;;;5.65;3.70;;;4.40;91.70;;;4.45;75.95;100029.47;5027069;28;20241;-88
2021/01/27 09:45:51;;;;;;;5.00;3.28;;;4.40;91.80;;;4.45;75.99;100028.63;5022944;28;20534;-88
2021/01/27 09:48:21;;;;;;;4.82;3.20;;;4.40;91.70;;;4.39;75.42;100040.03;5017592;28;20054;-88
2021/01/27 09:50:55;;;;;;;5.25;3.63;;;4.40;91.50;;;4.31;76.10;100044.34;5014469;28;20622;-88
2021/01/27 09:53:26;;;;;;;6.75;3.65;;;4.40;91.50;;;4.43;76.27;100044.09;5021893;28;20049;-88
2021/01/27 09:55:57;;;;;;;6.40;4.03;;;4.40;91.80;;;4.49;76.31;100051.56;5021548;28;20077;-89
2021/01/27 09:58:29;;;;;;;6.40;3.88;;;4.40;92.20;;;4.36;76.52;100051.09;5023535;28;20437;-87
2021/01/27 10:13:00;;;;;;;7.15;4.10;;;4.50;92.50;;;4.37;77.47;100044.72;4988407;28;20042;-91
2021/01/27 10:15:30;;;;;;;5.68;4.20;;;4.50;92.50;;;4.40;77.40;100039.00;4988598;28;20042;-89
2021/01/27 10:18:11;;;;;;;6.18;4.05;;;4.50;92.40;;;4.49;76.79;100048.84;5003684;28;20046;-89
2021/01/27 10:20:41;;;;;;;6.47;4.35;;;4.50;92.60;;;4.52;77.18;100043.16;5003726;28;20559;-88
2021/01/27 10:23:10;;;;;;;7.50;4.20;;;4.50;92.80;;;4.42;77.17;100045.13;5003843;28;20439;-88
2021/01/27 10:25:41;;;;;;;6.50;4.30;;;4.50;92.50;;;4.51;77.11;100052.22;5003479;28;20078;-89
2021/01/27 10:28:25;;;;;;;6.35;4.30;;;4.50;92.80;;;4.49;77.36;100054.25;4989015;28;20042;-88
2021/01/27 10:30:57;;;;;;;7.13;4.55;;;4.60;92.90;;;4.46;77.65;100052.72;5003941;28;20558;-89
2021/01/27 10:33:44;;;;;;;8.45;5.07;;;4.60;92.80;;;4.48;77.92;100056.09;4988539;28;20495;-87
2021/01/27 10:36:42;;;;;;;6.10;4.07;;;4.60;93.10;;;4.46;78.45;100051.88;4987429;28;20101;-90
2021/01/27 10:39:23;;;;;;;6.15;4.20;;;4.60;93.40;;;4.50;78.20;100047.88;4994059;28;20100;-92
2021/01/27 10:41:53;;;;;;;6.28;4.30;;;4.60;93.40;;;4.55;77.87;100045.56;5024372;28;20057;-89
2021/01/27 10:44:33;;;;;;;7.40;4.15;;;4.60;93.40;;;4.57;78.03;100048.06;4994855;28;20138;-88
2021/01/27 10:47:18;;;;;;;6.88;4.45;;;4.60;93.30;;;4.57;77.70;100042.69;4991302;28;20045;-88
2021/01/27 10:49:50;;;;;;;6.28;4.18;;;4.60;93.30;;;4.51;78.37;100038.75;4993328;28;20100;-88
2021/01/27 10:52:23;;;;;;;6.03;4.18;;;4.60;93.30;;;4.57;78.25;100031.91;5006119;28;20049;-90
2021/01/27 10:54:54;;;;;;;7.53;4.72;;;4.70;93.40;;;4.59;78.42;100033.44;5027088;28;20077;-91
2021/01/27 10:57:24;;;;;;;7.60;4.30;;;4.70;93.50;;;4.67;78.26;100033.50;5022306;28;20049;-90
2021/01/27 10:59:52;;;;;;;6.07;4.07;;;4.70;93.90;;;4.65;78.21;100045.44;5022220;28;20050;-90
2021/01/27 11:02:20;;;;;;;6.00;4.10;;;4.70;93.80;;;4.63;78.81;100032.13;5041312;28;20083;-88
2021/01/27 11:04:49;;;;;;;7.13;4.13;;;4.70;93.90;;;4.68;78.63;100035.22;5042213;28;20548;-88
2021/01/27 11:07:16;;;;;;;5.72;4.00;;;4.90;94.00;;;4.76;78.40;100036.25;5042064;28;20073;-88
2021/01/27 11:09:47;;;;;;;6.85;4.20;;;4.80;93.80;;;4.67;78.67;100030.81;5025772;28;20045;-88
2021/01/27 11:12:18;;;;;;;7.43;4.20;;;4.80;93.80;;;4.64;78.43;100028.41;5041921;28;20115;-88
2021/01/27 11:14:47;;;;;;;6.43;3.95;;;4.80;93.70;;;4.63;78.76;100031.28;5042038;28;20080;-88
2021/01/27 11:17:17;;;;;;;8.63;4.05;;;4.90;93.90;;;4.73;78.82;100026.63;5041896;28;20132;-87
2021/01/27 11:19:45;;;;;;;6.38;3.97;;;4.80;94.00;;;4.73;78.50;100023.09;5026602;28;20482;-87